createdAt,value
2023-03-08T00:00:21.122Z,46.25
2023-03-08T00:02:48.856Z,45.79
2023-03-08T00:05:16.935Z,46.21
2023-03-08T00:07:44.513Z,45.76
2023-03-08T00:10:12.881Z,45.77
2023-03-08T00:12:41.778Z,46.26
2023-03-08T00:15:09.745Z,46.44
2023-03-08T00:17:38.579Z,46.21
2023-03-08T00:20:07.409Z,45.84
2023-03-08T00:22:36.625Z,46.12
2023-03-08T00:25:04.346Z,46.27
2023-03-08T00:27:32.102Z,46.14
2023-03-08T00:30:00.941Z,46.32
2023-03-08T00:32:28.954Z,46.28
2023-03-08T00:34:56.743Z,46.34
2023-03-08T00:37:24.308Z,46.19
2023-03-08T00:39:53.009Z,46.54
2023-03-08T00:42:21.418Z,46.65
2023-03-08T00:44:49.175Z,46.41
2023-03-08T00:47:18.207Z,46.57
2023-03-08T00:49:45.752Z,46.31
2023-03-08T00:52:13.233Z,46.42
2023-03-08T00:54:40.787Z,46.95
2023-03-08T00:57:08.328Z,46.73
2023-03-08T00:59:35.858Z,46.74
2023-03-08T01:02:03.407Z,46.80
2023-03-08T01:04:33.874Z,46.67
2023-03-08T01:07:01.510Z,46.95
2023-03-08T01:09:29.051Z,47.05
2023-03-08T01:11:56.604Z,46.92
2023-03-08T01:14:24.280Z,47.27
2023-03-08T01:16:51.846Z,46.71
2023-03-08T01:19:19.753Z,46.70
2023-03-08T01:21:48.615Z,46.97
2023-03-08T01:24:16.086Z,46.68
2023-03-08T01:26:43.610Z,46.82
2023-03-08T01:29:11.112Z,47.42
2023-03-08T01:31:38.666Z,47.41
2023-03-08T01:34:06.281Z,47.19
2023-03-08T01:36:33.841Z,47.08
2023-03-08T01:39:02.789Z,47.01
2023-03-08T01:41:32.220Z,47.12
2023-03-08T01:43:59.827Z,47.09
2023-03-08T01:46:29.223Z,47.31
2023-03-08T01:49:06.116Z,47.52
2023-03-08T01:51:39.057Z,47.03
2023-03-08T01:54:12.502Z,47.39
2023-03-08T01:56:41.758Z,47.36
2023-03-08T01:59:09.555Z,47.13
2023-03-08T02:01:37.445Z,47.28
2023-03-08T02:04:05.050Z,47.22
2023-03-08T02:06:32.582Z,47.36
2023-03-08T02:09:04.364Z,47.03
2023-03-08T02:11:35.025Z,47.56
2023-03-08T02:14:03.816Z,47.34
2023-03-08T02:16:31.558Z,47.62
2023-03-08T02:19:00.745Z,47.30
2023-03-08T02:21:30.114Z,47.29
2023-03-08T02:24:06.169Z,47.16
2023-03-08T02:26:34.329Z,47.25
2023-03-08T02:29:01.916Z,47.38
2023-03-08T02:31:29.445Z,47.14
2023-03-08T02:33:57.014Z,47.14
2023-03-08T02:36:24.587Z,47.20
2023-03-08T02:38:52.130Z,47.21
2023-03-08T02:41:21.172Z,47.31
2023-03-08T02:43:48.695Z,47.58
2023-03-08T02:46:16.487Z,47.63
2023-03-08T02:48:46.152Z,47.17
2023-03-08T02:51:13.913Z,47.11
2023-03-08T02:53:41.412Z,47.47
2023-03-08T02:56:09.305Z,47.19
2023-03-08T02:58:38.158Z,47.50
2023-03-08T03:01:12.295Z,47.42
2023-03-08T03:03:39.957Z,47.37
2023-03-08T03:06:15.333Z,47.54
2023-03-08T03:08:42.930Z,47.42
2023-03-08T03:11:14.711Z,47.63
2023-03-08T03:13:43.555Z,47.73
2023-03-08T03:16:12.692Z,47.81
2023-03-08T03:18:40.558Z,47.64
2023-03-08T03:21:10.855Z,47.28
2023-03-08T03:23:39.065Z,47.28
2023-03-08T03:26:07.131Z,47.54
2023-03-08T03:28:34.725Z,47.75
2023-03-08T03:31:08.121Z,47.75
2023-03-08T03:33:36.004Z,48.01
2023-03-08T03:36:04.385Z,47.83
2023-03-08T03:38:31.974Z,48.12
2023-03-08T03:41:03.391Z,47.91
2023-03-08T03:43:31.154Z,47.89
2023-03-08T03:46:00.092Z,48.47
2023-03-08T03:48:29.401Z,48.20
2023-03-08T03:50:58.078Z,48.09
2023-03-08T03:53:25.704Z,47.85
2023-03-08T03:55:53.270Z,48.39
2023-03-08T03:58:20.790Z,48.42
2023-03-08T04:00:48.435Z,48.52
2023-03-08T04:03:16.098Z,48.46
2023-03-08T04:05:45.168Z,48.22
2023-03-08T04:08:12.675Z,48.85
2023-03-08T04:10:40.262Z,48.48
2023-03-08T04:13:07.857Z,48.91
2023-03-08T04:15:35.441Z,48.99
2023-03-08T04:18:02.986Z,49.61
2023-03-08T04:20:30.636Z,49.61
2023-03-08T04:22:59.588Z,50.08
2023-03-08T04:25:27.201Z,50.17
2023-03-08T04:27:54.792Z,49.97
2023-03-08T04:30:22.488Z,50.06
2023-03-08T04:32:50.054Z,49.85
2023-03-08T04:35:17.879Z,49.41
2023-03-08T04:37:48.260Z,49.81
2023-03-08T04:40:19.111Z,49.78
2023-03-08T04:42:47.351Z,49.53
2023-03-08T04:45:15.209Z,49.15
2023-03-08T04:47:42.866Z,49.08
2023-03-08T04:50:11.705Z,49.12
2023-03-08T04:52:39.331Z,49.58
2023-03-08T04:55:08.079Z,49.47
2023-03-08T04:57:37.095Z,49.98
2023-03-08T05:00:05.931Z,50.02
2023-03-08T05:02:33.958Z,49.48
2023-03-08T05:05:01.717Z,49.87
2023-03-08T05:07:29.333Z,50.20
2023-03-08T05:09:56.900Z,50.17
2023-03-08T05:12:24.466Z,50.48
2023-03-08T05:14:53.415Z,50.59
2023-03-08T05:17:21.713Z,50.67
2023-03-08T05:19:49.323Z,50.96
2023-03-08T05:22:16.881Z,50.93
2023-03-08T05:24:44.468Z,50.77
2023-03-08T05:27:12.059Z,50.75
2023-03-08T05:29:39.607Z,50.67
2023-03-08T05:32:12.071Z,50.92
2023-03-08T05:34:39.783Z,50.93
2023-03-08T05:37:07.347Z,51.19
2023-03-08T05:39:34.882Z,51.26
2023-03-08T05:42:02.425Z,51.17
2023-03-08T05:44:30.320Z,51.08
2023-03-08T05:46:57.889Z,51.19
2023-03-08T05:49:26.860Z,51.23
2023-03-08T05:51:54.752Z,51.53
2023-03-08T05:54:22.361Z,51.35
2023-03-08T05:56:49.935Z,51.62
2023-03-08T05:59:17.930Z,52.00
2023-03-08T06:01:45.542Z,51.66
2023-03-08T06:04:13.235Z,51.97
2023-03-08T06:06:42.119Z,52.06
2023-03-08T06:09:09.735Z,51.78
2023-03-08T06:11:37.354Z,52.00
2023-03-08T06:14:04.915Z,51.65
2023-03-08T06:16:32.526Z,52.11
2023-03-08T06:19:00.086Z,51.97
2023-03-08T06:21:27.695Z,52.04
2023-03-08T06:23:56.601Z,52.01
2023-03-08T06:26:24.142Z,51.83
2023-03-08T06:28:51.650Z,51.80
2023-03-08T06:31:20.757Z,52.08
2023-03-08T06:33:48.272Z,52.26
2023-03-08T06:36:18.005Z,52.13
2023-03-08T06:38:45.854Z,52.91
2023-03-08T06:41:16.419Z,53.52
2023-03-08T06:43:44.379Z,53.66
2023-03-08T06:46:14.209Z,55.04
2023-03-08T06:48:41.832Z,55.24
2023-03-08T06:51:09.909Z,55.20
2023-03-08T06:53:38.178Z,55.59
2023-03-08T06:56:06.845Z,55.67
2023-03-08T06:58:38.081Z,56.48
2023-03-08T07:01:07.051Z,56.72
2023-03-08T07:03:34.855Z,56.83
2023-03-08T07:06:03.704Z,56.64
2023-03-08T07:08:31.388Z,57.21
2023-03-08T07:10:59.980Z,57.75
2023-03-08T07:13:29.000Z,57.83
2023-03-08T07:16:09.539Z,58.68
2023-03-08T07:18:37.328Z,58.16
2023-03-08T07:21:05.498Z,58.24
2023-03-08T07:23:33.424Z,58.24
2023-03-08T07:26:01.032Z,58.38
2023-03-08T07:28:28.651Z,58.82
2023-03-08T07:30:56.271Z,58.98
2023-03-08T07:33:25.411Z,59.84
2023-03-08T07:35:53.200Z,59.27
2023-03-08T07:38:20.982Z,59.69
2023-03-08T07:40:55.516Z,60.86
2023-03-08T07:43:23.193Z,60.15
2023-03-08T07:45:50.754Z,60.46
2023-03-08T07:48:18.370Z,60.48
2023-03-08T07:50:47.448Z,60.59
2023-03-08T07:53:16.371Z,61.04
2023-03-08T07:55:43.953Z,60.63
2023-03-08T07:58:11.537Z,60.92
2023-03-08T08:00:39.358Z,60.90
2023-03-08T08:03:06.997Z,61.33
2023-03-08T08:05:36.292Z,61.63
2023-03-08T08:08:05.671Z,61.58
2023-03-08T08:10:33.231Z,61.28
2023-03-08T08:13:00.893Z,61.66
2023-03-08T08:15:30.895Z,61.93
2023-03-08T08:17:58.617Z,62.47
2023-03-08T08:20:26.795Z,62.28
2023-03-08T08:22:54.698Z,62.53
2023-03-08T08:25:23.599Z,62.75
2023-03-08T08:27:51.980Z,62.78
2023-03-08T08:30:19.770Z,62.83
2023-03-08T08:32:47.463Z,62.49
2023-03-08T08:35:15.077Z,62.68
2023-03-08T08:37:42.684Z,63.49
2023-03-08T08:40:12.204Z,63.65
2023-03-08T08:42:41.123Z,63.82
2023-03-08T08:45:10.669Z,64.26
2023-03-08T08:47:38.462Z,63.80
2023-03-08T08:50:06.721Z,64.05
2023-03-08T08:52:37.454Z,64.75
2023-03-08T08:55:05.550Z,64.55
2023-03-08T08:57:33.068Z,64.91
2023-03-08T09:00:01.961Z,65.26
2023-03-08T09:02:29.554Z,65.54
2023-03-08T09:04:57.253Z,65.92
2023-03-08T09:07:24.878Z,65.76
2023-03-08T09:09:55.280Z,66.20
2023-03-08T09:12:22.810Z,66.32
2023-03-08T09:14:50.371Z,66.19
2023-03-08T09:17:19.196Z,66.62
2023-03-08T09:19:46.697Z,66.17
2023-03-08T09:22:14.261Z,66.74
2023-03-08T09:24:41.761Z,67.15
2023-03-08T09:27:09.383Z,67.56
2023-03-08T09:29:38.076Z,67.59
2023-03-08T09:32:06.506Z,67.51
2023-03-08T09:34:35.623Z,67.99
2023-03-08T09:37:03.262Z,67.58
2023-03-08T09:39:30.808Z,67.11
2023-03-08T09:42:00.555Z,67.39
2023-03-08T09:45:06.500Z,68.04
2023-03-08T09:47:42.725Z,67.85
2023-03-08T09:50:22.478Z,68.14
2023-03-08T09:52:54.548Z,67.44
2023-03-08T09:55:30.159Z,67.24
2023-03-08T09:58:00.948Z,67.37
2023-03-08T10:00:32.115Z,67.34
2023-03-08T10:03:16.491Z,67.22
2023-03-08T10:05:52.576Z,66.97
2023-03-08T10:08:26.506Z,66.77
2023-03-08T10:11:00.610Z,66.82
2023-03-08T10:13:33.963Z,66.72
2023-03-08T10:16:15.567Z,66.65
2023-03-08T10:18:49.072Z,66.70
2023-03-08T10:21:20.426Z,66.21
2023-03-08T10:23:52.142Z,66.04
2023-03-08T10:26:19.696Z,65.75
2023-03-08T10:28:47.252Z,65.68
2023-03-08T10:31:22.404Z,66.01
2023-03-08T10:33:53.462Z,65.89
2023-03-08T10:36:24.192Z,65.50
2023-03-08T10:39:02.907Z,65.92
2023-03-08T10:41:32.915Z,65.18
2023-03-08T10:44:01.358Z,65.38
2023-03-08T10:46:32.869Z,65.67
2023-03-08T10:49:11.075Z,65.52
2023-03-08T10:51:39.972Z,65.08
2023-03-08T10:54:07.970Z,65.31
2023-03-08T10:56:38.690Z,65.57
2023-03-08T10:59:15.674Z,65.52
2023-03-08T11:01:50.632Z,65.78
2023-03-08T11:04:20.673Z,65.23
2023-03-08T11:06:49.974Z,65.20
2023-03-08T11:09:23.052Z,65.62
2023-03-08T11:11:50.630Z,65.60
2023-03-08T11:14:18.424Z,65.76
2023-03-08T11:17:03.746Z,66.67
2023-03-08T11:19:43.834Z,66.87
2023-03-08T11:22:24.797Z,66.51
2023-03-08T11:25:13.750Z,67.11
2023-03-08T11:27:55.527Z,66.54
2023-03-08T11:30:33.582Z,66.26
2023-03-08T11:33:16.675Z,67.03
2023-03-08T11:35:49.969Z,67.30
2023-03-08T11:38:22.883Z,66.86
2023-03-08T11:40:56.035Z,67.16
2023-03-08T11:43:41.221Z,67.71
2023-03-08T11:46:16.218Z,67.64
2023-03-08T11:48:57.541Z,68.23
2023-03-08T11:51:33.763Z,68.55
2023-03-08T11:54:16.721Z,69.08
2023-03-08T11:56:48.457Z,68.57
2023-03-08T11:59:27.603Z,69.30
2023-03-08T12:02:00.617Z,68.72
2023-03-08T12:04:36.591Z,68.60
2023-03-08T12:07:10.275Z,68.36
2023-03-08T12:09:46.789Z,69.01
2023-03-08T12:12:22.161Z,68.93
2023-03-08T12:14:56.883Z,69.80
2023-03-08T12:17:28.281Z,69.83
2023-03-08T12:19:56.142Z,69.11
2023-03-08T12:22:45.977Z,70.19
2023-03-08T12:25:24.107Z,69.33
2023-03-08T12:27:57.508Z,69.37
2023-03-08T12:30:36.418Z,69.17
2023-03-08T12:33:06.625Z,69.15
2023-03-08T12:35:36.179Z,68.90
2023-03-08T12:38:07.597Z,68.87
2023-03-08T12:40:42.323Z,69.44
2023-03-08T12:43:12.581Z,69.11
2023-03-08T12:45:41.404Z,68.79
2023-03-08T12:48:18.869Z,68.81
2023-03-08T12:51:00.634Z,68.59
2023-03-08T12:53:36.025Z,68.46
2023-03-08T12:56:08.041Z,68.79
2023-03-08T12:58:39.092Z,68.28
2023-03-08T13:01:08.845Z,67.85
2023-03-08T13:03:41.389Z,68.17
2023-03-08T13:06:28.955Z,68.08
2023-03-08T13:09:01.624Z,67.99
2023-03-08T13:11:40.738Z,68.02
2023-03-08T13:14:25.422Z,68.30
2023-03-08T13:16:53.308Z,68.19
2023-03-08T13:19:27.093Z,68.39
2023-03-08T13:22:06.150Z,67.68
2023-03-08T13:24:41.425Z,67.73
2023-03-08T13:27:26.111Z,67.91
2023-03-08T13:29:54.941Z,67.10
2023-03-08T13:32:25.218Z,67.44
2023-03-08T13:34:59.925Z,68.00
2023-03-08T13:37:30.255Z,67.60
2023-03-08T13:39:59.480Z,67.18
2023-03-08T13:42:29.982Z,67.42
2023-03-08T13:45:08.834Z,67.77
2023-03-08T13:47:38.803Z,67.45
2023-03-08T13:50:07.747Z,67.13
2023-03-08T13:52:39.085Z,67.30
2023-03-08T13:55:14.745Z,67.13
2023-03-08T13:57:43.849Z,67.46
2023-03-08T14:00:25.274Z,67.17
2023-03-08T14:02:53.621Z,66.79
2023-03-08T14:05:23.611Z,66.72
2023-03-08T14:07:59.309Z,67.26
2023-03-08T14:10:32.852Z,66.54
2023-03-08T14:13:01.845Z,66.46
2023-03-08T14:15:30.323Z,66.61
2023-03-08T14:17:58.293Z,66.53
2023-03-08T14:20:26.492Z,66.61
2023-03-08T14:22:55.345Z,66.33
2023-03-08T14:25:26.649Z,66.00
2023-03-08T14:27:54.697Z,66.01
2023-03-08T14:30:25.030Z,66.34
2023-03-08T14:33:00.055Z,66.27
2023-03-08T14:35:29.627Z,65.98
2023-03-08T14:37:58.562Z,65.93
2023-03-08T14:40:35.420Z,66.47
2023-03-08T14:43:05.413Z,66.13
2023-03-08T14:45:37.134Z,66.39
2023-03-08T14:48:22.792Z,66.24
2023-03-08T14:50:56.255Z,66.07
2023-03-08T14:53:29.194Z,65.78
2023-03-08T14:55:57.508Z,65.98
2023-03-08T14:58:28.393Z,65.52
2023-03-08T15:01:01.030Z,65.61
2023-03-08T15:03:29.575Z,65.73
2023-03-08T15:05:57.501Z,65.92
2023-03-08T15:08:25.962Z,65.71
2023-03-08T15:10:53.922Z,66.38
2023-03-08T15:13:23.841Z,66.19
2023-03-08T15:15:51.610Z,66.20
2023-03-08T15:18:20.894Z,66.31
2023-03-08T15:20:50.970Z,66.60
2023-03-08T15:23:22.883Z,66.88
2023-03-08T15:25:51.071Z,66.75
2023-03-08T15:28:20.428Z,66.98
2023-03-08T15:30:48.510Z,67.09
2023-03-08T15:33:16.065Z,67.17
2023-03-08T15:35:44.996Z,68.10
2023-03-08T15:38:14.628Z,67.70
2023-03-08T15:40:42.833Z,67.87
2023-03-08T15:43:11.332Z,68.19
2023-03-08T15:45:39.226Z,67.79
2023-03-08T15:48:08.306Z,67.98
2023-03-08T15:50:36.486Z,67.92
2023-03-08T15:53:05.406Z,68.00
2023-03-08T15:55:33.311Z,67.94
2023-03-08T15:58:00.887Z,67.55
2023-03-08T16:00:28.665Z,67.77
2023-03-08T16:02:56.918Z,67.52
2023-03-08T16:05:25.201Z,67.76
2023-03-08T16:07:56.238Z,67.94
2023-03-08T16:10:25.264Z,67.76
2023-03-08T16:12:53.318Z,67.62
2023-03-08T16:15:21.191Z,67.55
2023-03-08T16:17:48.821Z,67.62
2023-03-08T16:20:16.878Z,67.56
2023-03-08T16:22:46.379Z,67.69
2023-03-08T16:25:14.295Z,67.79
2023-03-08T16:27:43.184Z,67.62
2023-03-08T16:30:12.891Z,67.26
2023-03-08T16:32:40.483Z,67.00
2023-03-08T16:35:08.760Z,67.12
2023-03-08T16:37:36.346Z,67.07
2023-03-08T16:40:05.586Z,67.19
2023-03-08T16:42:33.144Z,67.04
2023-03-08T16:45:02.281Z,67.00
2023-03-08T16:47:32.190Z,66.80
2023-03-08T16:50:00.509Z,66.99
2023-03-08T16:52:28.055Z,66.80
2023-03-08T16:54:55.559Z,66.66
2023-03-08T16:57:23.077Z,66.72
2023-03-08T16:59:50.567Z,66.56
2023-03-08T17:02:21.517Z,66.44
2023-03-08T17:04:50.090Z,66.31
2023-03-08T17:07:18.248Z,66.57
2023-03-08T17:09:46.227Z,66.80
2023-03-08T17:12:13.906Z,66.86
2023-03-08T17:14:41.466Z,67.11
2023-03-08T17:17:10.396Z,67.09
2023-03-08T17:19:41.066Z,67.10
2023-03-08T17:22:09.405Z,67.18
2023-03-08T17:24:36.955Z,67.22
2023-03-08T17:27:04.983Z,67.52
2023-03-08T17:29:32.555Z,67.52
2023-03-08T17:32:00.138Z,67.93
2023-03-08T17:34:27.714Z,68.49
2023-03-08T17:36:56.582Z,69.21
2023-03-08T17:39:24.214Z,69.59
2023-03-08T17:41:51.700Z,69.99
2023-03-08T17:44:19.216Z,70.18
2023-03-08T17:46:46.723Z,70.39
2023-03-08T17:49:16.140Z,70.50
2023-03-08T17:51:45.729Z,70.94
2023-03-08T17:54:14.675Z,70.77
2023-03-08T17:56:42.281Z,70.21
2023-03-08T17:59:14.754Z,70.01
2023-03-08T18:01:42.549Z,69.91
2023-03-08T18:04:10.297Z,70.00
2023-03-08T18:06:39.433Z,70.12
2023-03-08T18:09:08.889Z,70.57
2023-03-08T18:11:38.348Z,70.60
2023-03-08T18:14:06.403Z,70.13
2023-03-08T18:16:34.255Z,70.30
2023-03-08T18:19:02.419Z,70.13
2023-03-08T18:21:31.238Z,70.58
2023-03-08T18:23:59.463Z,70.84
2023-03-08T18:26:27.233Z,70.84
2023-03-08T18:28:56.372Z,70.41
2023-03-08T18:31:26.723Z,71.06
2023-03-08T18:33:55.448Z,71.12
2023-03-08T18:36:24.343Z,70.70
2023-03-08T18:38:52.210Z,70.62
2023-03-08T18:41:32.616Z,70.50
2023-03-08T18:44:02.471Z,70.40
2023-03-08T18:46:31.965Z,70.06
2023-03-08T18:49:01.878Z,69.95
2023-03-08T18:51:30.407Z,69.74
2023-03-08T18:53:58.940Z,69.79
2023-03-08T18:56:27.138Z,69.72
2023-03-08T18:58:55.610Z,69.47
2023-03-08T19:01:25.117Z,69.39
2023-03-08T19:03:53.041Z,69.27
2023-03-08T19:06:20.683Z,69.11
2023-03-08T19:08:48.629Z,68.98
2023-03-08T19:11:17.834Z,69.08
2023-03-08T19:13:46.034Z,68.96
2023-03-08T19:16:19.030Z,68.81
2023-03-08T19:18:49.259Z,68.44
2023-03-08T19:21:18.613Z,68.29
2023-03-08T19:23:46.542Z,68.38
2023-03-08T19:26:40.788Z,68.20
2023-03-08T19:29:11.841Z,68.12
2023-03-08T19:31:42.149Z,68.38
2023-03-08T19:34:13.179Z,68.04
2023-03-08T19:36:41.593Z,67.81
2023-03-08T19:39:11.562Z,67.96
2023-03-08T19:41:39.345Z,67.64
2023-03-08T19:44:08.063Z,67.95
2023-03-08T19:46:36.245Z,67.63
2023-03-08T19:49:05.836Z,67.61
2023-03-08T19:51:35.150Z,67.84
2023-03-08T19:54:03.084Z,67.71
2023-03-08T19:56:30.745Z,67.77
2023-03-08T19:58:59.303Z,67.93
2023-03-08T20:01:27.975Z,68.13
2023-03-08T20:03:56.153Z,68.04
2023-03-08T20:06:25.114Z,68.37
2023-03-08T20:08:55.447Z,68.43
2023-03-08T20:11:23.174Z,68.45
2023-03-08T20:13:51.188Z,68.55
2023-03-08T20:16:19.294Z,68.39
2023-03-08T20:18:49.160Z,68.50
2023-03-08T20:21:17.240Z,68.64
2023-03-08T20:23:44.882Z,69.13
2023-03-08T20:26:14.125Z,69.41
2023-03-08T20:28:41.683Z,69.54
2023-03-08T20:31:10.148Z,69.77
2023-03-08T20:33:38.078Z,69.72
2023-03-08T20:36:06.535Z,69.88
2023-03-08T20:38:34.390Z,70.13
2023-03-08T20:41:04.169Z,70.94
2023-03-08T20:43:33.944Z,70.66
2023-03-08T20:46:05.818Z,71.11
2023-03-08T20:48:33.887Z,71.14
2023-03-08T20:51:02.298Z,71.32
2023-03-08T20:53:31.282Z,71.93
2023-03-08T20:55:58.949Z,71.72
2023-03-08T20:58:27.245Z,71.84
2023-03-08T21:00:56.328Z,72.30
2023-03-08T21:03:23.932Z,72.29
2023-03-08T21:05:51.647Z,72.73
2023-03-08T21:08:19.738Z,72.47
2023-03-08T21:10:47.308Z,72.57
2023-03-08T21:13:14.836Z,72.85
2023-03-08T21:15:42.811Z,73.48
2023-03-08T21:18:11.771Z,73.61
2023-03-08T21:20:39.593Z,74.10
2023-03-08T21:23:07.225Z,74.14
2023-03-08T21:25:36.731Z,74.67
2023-03-08T21:28:05.413Z,75.23
2023-03-08T21:30:33.404Z,75.58
2023-03-08T21:33:00.953Z,76.20
2023-03-08T21:35:31.907Z,77.20
2023-03-08T21:37:59.955Z,76.98
2023-03-08T21:40:27.549Z,76.88
2023-03-08T21:42:55.154Z,76.91
2023-03-08T21:45:22.820Z,76.71
2023-03-08T21:47:50.462Z,76.88
2023-03-08T21:50:18.790Z,76.99
2023-03-08T21:52:58.344Z,77.45
2023-03-08T21:55:33.140Z,77.06
2023-03-08T21:58:00.767Z,77.49
2023-03-08T22:00:32.711Z,78.24
2023-03-08T22:03:00.486Z,77.59
2023-03-08T22:05:28.128Z,77.70
2023-03-08T22:07:57.097Z,77.97
2023-03-08T22:10:24.720Z,78.22
2023-03-08T22:12:52.259Z,78.45
2023-03-08T22:15:20.094Z,77.96
2023-03-08T22:17:47.733Z,78.29
2023-03-08T22:20:15.509Z,78.01
2023-03-08T22:22:44.082Z,78.33
2023-03-08T22:25:13.203Z,78.50
2023-03-08T22:27:40.746Z,78.75
2023-03-08T22:30:10.736Z,78.85
2023-03-08T22:32:40.079Z,78.70
2023-03-08T22:35:09.159Z,79.07
2023-03-08T22:37:37.029Z,78.86
2023-03-08T22:40:06.290Z,79.22
2023-03-08T22:42:35.793Z,79.54
2023-03-08T22:45:03.577Z,79.53
2023-03-08T22:47:31.569Z,80.00
2023-03-08T22:49:59.211Z,80.13
2023-03-08T22:52:29.761Z,79.84
2023-03-08T22:54:57.290Z,80.15
2023-03-08T22:57:24.824Z,80.27
2023-03-08T22:59:57.103Z,80.96
2023-03-08T23:02:25.263Z,80.10
2023-03-08T23:04:52.734Z,80.11
2023-03-08T23:07:20.246Z,80.22
2023-03-08T23:09:47.733Z,79.69
2023-03-08T23:12:15.238Z,79.92
2023-03-08T23:14:45.187Z,80.08
2023-03-08T23:17:14.217Z,80.12
2023-03-08T23:19:44.899Z,80.03
2023-03-08T23:22:13.062Z,79.97
2023-03-08T23:24:40.549Z,79.88
2023-03-08T23:27:08.414Z,79.87
2023-03-08T23:29:36.845Z,79.98
2023-03-08T23:32:04.808Z,79.94
2023-03-08T23:34:33.699Z,79.80
2023-03-08T23:37:03.801Z,79.63
2023-03-08T23:39:31.352Z,79.50
2023-03-08T23:41:58.878Z,79.69
2023-03-08T23:44:26.455Z,79.62
2023-03-08T23:46:53.959Z,79.57
2023-03-08T23:49:21.449Z,79.56
2023-03-08T23:51:50.344Z,79.63
2023-03-08T23:54:17.844Z,79.47
2023-03-08T23:56:45.341Z,79.50
2023-03-08T23:59:16.269Z,79.49
